Time;durP1;ratioP1;P1;durP2;ratioP2;P2;SDS_P1;SDS_P2;PMS_P1;PMS_P2;Temp;Humidity;BMP_temperature;BMP_pressure;BME280_temperature;BME280_humidity;BME280_pressure;Samples;Min_cycle;Max_cycle;Signal;HPM_P1;HPM_P2
2022/08/18 00:02:18;;;;;;;;;;;;;;;19.29;100.00;101267.22;2613082;36;19939;-56
2022/08/18 00:04:46;;;;;;;;;;;;;;;19.14;100.00;101265.31;2613107;31;19954;-54
2022/08/18 00:07:16;;;;;;;;;;;;;;;19.08;100.00;101257.88;2611665;36;19951;-54
2022/08/18 00:09:47;;;;;;;;;;;;;;;19.17;100.00;101258.63;2611357;36;19957;-56
2022/08/18 00:12:16;;;;;;;;;;;;;;;19.12;100.00;101255.59;2613719;31;20355;-54
2022/08/18 00:14:45;;;;;;;;;;;;;;;19.29;100.00;101257.16;2611804;36;20309;-55
2022/08/18 00:17:13;;;;;;;;;;;;;;;19.30;100.00;101258.00;2610689;36;19951;-56
2022/08/18 00:19:41;;;;;;;;;;;;;;;19.24;100.00;101263.19;2611030;36;19985;-55
2022/08/18 00:22:09;;;;;;;;;;;;;;;19.24;100.00;101276.84;2611413;36;19977;-56
2022/08/18 00:24:37;;;;;;;;;;;;;;;19.35;100.00;101271.97;2611041;36;20466;-51
2022/08/18 00:27:09;;;;;;;;;;;;;;;19.37;100.00;101278.06;2610816;36;19946;-56
2022/08/18 00:29:37;;;;;;;;;;;;;;;19.55;100.00;101270.41;2611151;36;19954;-54
2022/08/18 00:32:13;;;;;;;;;;;;;;;19.56;100.00;101276.72;2610683;36;19987;-56
2022/08/18 00:34:41;;;;;;;;;;;;;;;19.61;100.00;101268.81;2612633;31;20041;-54
2022/08/18 00:37:09;;;;;;;;;;;;;;;19.73;100.00;101264.59;2610510;31;19977;-57
2022/08/18 00:39:37;;;;;;;;;;;;;;;19.79;100.00;101271.22;2610637;36;19947;-55
2022/08/18 00:42:17;;;;;;;;;;;;;;;19.77;100.00;101265.94;2611853;31;19954;-55
2022/08/18 00:44:45;;;;;;;;;;;;;;;19.79;100.00;101271.22;2611535;36;20305;-55
2022/08/18 00:47:13;;;;;;;;;;;;;;;19.87;100.00;101271.13;2611205;36;20328;-55
2022/08/18 00:49:43;;;;;;;;;;;;;;;19.91;100.00;101261.53;2611568;31;19946;-55
2022/08/18 00:52:13;;;;;;;;;;;;;;;19.97;100.00;101265.38;2609180;36;19950;-56
2022/08/18 00:54:42;;;;;;;;;;;;;;;19.97;100.00;101257.19;2609355;36;19966;-55
2022/08/18 00:57:11;;;;;;;;;;;;;;;19.99;100.00;101251.53;2611330;36;20340;-55
2022/08/18 00:59:45;;;;;;;;;;;;;;;19.76;100.00;101252.47;2610240;36;20478;-57
2022/08/18 01:02:17;;;;;;;;;;;;;;;19.81;100.00;101255.50;2611450;31;20431;-55
2022/08/18 01:04:50;;;;;;;;;;;;;;;19.97;100.00;101248.16;2612040;36;20368;-55
2022/08/18 01:07:19;;;;;;;;;;;;;;;19.99;100.00;101255.09;2610998;31;19977;-56
2022/08/18 01:09:47;;;;;;;;;;;;;;;20.04;100.00;101244.47;2610487;36;19954;-57
2022/08/18 01:12:16;;;;;;;;;;;;;;;20.05;100.00;101239.84;2610598;36;19953;-54
2022/08/18 01:14:48;;;;;;;;;;;;;;;19.98;100.00;101244.38;2610479;36;19979;-56
2022/08/18 01:22:40;;;;;;;;;;;;;;;20.09;100.00;101268.50;2611399;36;20467;-57
2022/08/18 01:27:53;;;;;;;;;;;;;;;20.28;100.00;101267.91;2611137;36;19969;-53
2022/08/18 01:30:24;;;;;;;;;;;;;;;20.27;100.00;101265.38;2610872;36;19950;-55
2022/08/18 01:32:52;;;;;;;;;;;;;;;20.22;100.00;101273.31;2613337;36;19951;-53
2022/08/18 01:35:21;;;;;;;;;;;;;;;20.11;100.00;101271.88;2614600;36;19981;-55
2022/08/18 01:37:49;;;;;;;;;;;;;;;20.37;100.00;101278.75;2615049;36;19950;-55
2022/08/18 01:40:21;;;;;;;;;;;;;;;20.50;100.00;101272.59;2614948;36;19947;-53
2022/08/18 01:42:49;;;;;;;;;;;;;;;20.44;100.00;101271.47;2615354;36;19955;-56
2022/08/18 01:45:19;;;;;;;;;;;;;;;20.32;100.00;101273.84;2615022;36;19978;-56
2022/08/18 01:47:49;;;;;;;;;;;;;;;20.24;100.00;101285.75;2614161;36;19961;-52
2022/08/18 01:50:18;;;;;;;;;;;;;;;20.25;100.00;101279.22;2615424;36;20336;-53
2022/08/18 01:52:46;;;;;;;;;;;;;;;20.19;100.00;101279.16;2615579;36;19973;-54
2022/08/18 01:55:14;;;;;;;;;;;;;;;20.30;100.00;101274.06;2612377;36;19950;-54
2022/08/18 01:57:45;;;;;;;;;;;;;;;20.29;100.00;101279.72;2611687;36;19955;-54
2022/08/18 02:00:14;;;;;;;;;;;;;;;20.31;100.00;101275.72;2611919;36;20037;-56
2022/08/18 02:02:43;;;;;;;;;;;;;;;20.30;100.00;101281.38;2611728;36;20471;-56
2022/08/18 02:05:14;;;;;;;;;;;;;;;20.35;100.00;101278.09;2611929;36;19957;-55
2022/08/18 02:07:42;;;;;;;;;;;;;;;20.37;100.00;101274.13;2611889;36;19950;-56
2022/08/18 02:10:11;;;;;;;;;;;;;;;20.36;100.00;101266.09;2612965;36;20363;-56
2022/08/18 02:12:39;;;;;;;;;;;;;;;20.31;100.00;101259.31;2613931;36;20015;-53
2022/08/18 02:15:11;;;;;;;;;;;;;;;20.34;100.00;101268.19;2614632;36;19954;-57
2022/08/18 02:17:39;;;;;;;;;;;;;;;20.36;100.00;101263.38;2613804;36;19954;-57
2022/08/18 02:20:09;;;;;;;;;;;;;;;20.36;100.00;101269.72;2614892;36;19950;-57
2022/08/18 02:22:37;;;;;;;;;;;;;;;20.43;100.00;101264.31;2614320;36;19955;-52
2022/08/18 02:25:06;;;;;;;;;;;;;;;20.44;100.00;101272.31;2613213;31;19986;-56
2022/08/18 02:27:34;;;;;;;;;;;;;;;20.44;100.00;101269.59;2612805;31;19982;-55
2022/08/18 02:30:02;;;;;;;;;;;;;;;20.40;100.00;101264.69;2614039;36;19947;-55
2022/08/18 02:32:33;;;;;;;;;;;;;;;20.41;100.00;101269.13;2612766;31;19978;-56
2022/08/18 02:35:01;;;;;;;;;;;;;;;20.28;100.00;101273.38;2615368;36;20336;-56
2022/08/18 02:37:29;;;;;;;;;;;;;;;20.27;100.00;101276.28;2613106;36;19973;-57
2022/08/18 02:39:58;;;;;;;;;;;;;;;20.33;100.00;101266.50;2613350;36;19951;-56
2022/08/18 02:42:26;;;;;;;;;;;;;;;20.30;100.00;101263.13;2612376;36;19965;-56
2022/08/18 02:44:54;;;;;;;;;;;;;;;20.43;100.00;101267.03;2613005;31;20463;-53
2022/08/18 02:47:23;;;;;;;;;;;;;;;20.44;100.00;101266.00;2613349;36;19958;-55
2022/08/18 02:49:54;;;;;;;;;;;;;;;20.39;100.00;101265.72;2614028;36;19946;-55
2022/08/18 02:52:22;;;;;;;;;;;;;;;20.38;100.00;101258.59;2613594;36;19954;-55
2022/08/18 02:54:51;;;;;;;;;;;;;;;20.38;100.00;101261.31;2613987;36;19951;-55
2022/08/18 02:57:21;;;;;;;;;;;;;;;20.31;100.00;101273.00;2613798;36;19939;-54
2022/08/18 02:59:49;;;;;;;;;;;;;;;20.33;100.00;101274.69;2614936;36;20053;-56
2022/08/18 03:02:17;;;;;;;;;;;;;;;20.14;100.00;101277.00;2612430;36;19947;-54
2022/08/18 03:04:45;;;;;;;;;;;;;;;19.92;100.00;101287.81;2611755;31;19951;-56
2022/08/18 03:07:16;;;;;;;;;;;;;;;20.10;100.00;101287.44;2614512;36;19947;-57
2022/08/18 03:09:44;;;;;;;;;;;;;;;20.09;100.00;101279.44;2614532;36;19966;-57
2022/08/18 03:12:12;;;;;;;;;;;;;;;20.20;100.00;101275.34;2614295;36;19988;-56
2022/08/18 03:14:42;;;;;;;;;;;;;;;20.17;100.00;101270.28;2616115;31;20429;-57
2022/08/18 03:17:12;;;;;;;;;;;;;;;20.16;100.00;101280.38;2615086;36;19981;-56
2022/08/18 03:19:44;;;;;;;;;;;;;;;20.20;100.00;101281.69;2614324;54;19977;-56
2022/08/18 03:22:13;;;;;;;;;;;;;;;20.20;100.00;101284.44;2607709;36;19961;-56
2022/08/18 03:24:43;;;;;;;;;;;;;;;20.12;100.00;101296.28;2606455;36;20027;-56
2022/08/18 03:27:11;;;;;;;;;;;;;;;20.10;100.00;101289.34;2610792;36;19950;-53
2022/08/18 03:29:39;;;;;;;;;;;;;;;20.05;100.00;101289.03;2614697;36;20481;-56
2022/08/18 03:32:09;;;;;;;;;;;;;;;20.07;100.00;101308.84;2613965;36;19954;-54
2022/08/18 03:34:37;;;;;;;;;;;;;;;20.01;100.00;101298.63;2614897;36;19951;-55
2022/08/18 03:37:05;;;;;;;;;;;;;;;19.90;100.00;101303.53;2612788;36;19953;-56
2022/08/18 03:39:34;;;;;;;;;;;;;;;19.90;100.00;101309.00;2614670;36;19951;-55
2022/08/18 03:42:04;;;;;;;;;;;;;;;19.82;100.00;101308.22;2613295;36;19975;-57
2022/08/18 03:44:36;;;;;;;;;;;;;;;19.90;100.00;101309.00;2614705;36;20420;-55
2022/08/18 03:47:05;;;;;;;;;;;;;;;19.95;100.00;101305.72;2614033;31;19975;-57
2022/08/18 03:49:33;;;;;;;;;;;;;;;19.79;100.00;101301.28;2614066;36;19950;-58
2022/08/18 03:52:02;;;;;;;;;;;;;;;19.80;100.00;101319.34;2613257;36;20403;-57
2022/08/18 03:54:30;;;;;;;;;;;;;;;19.76;100.00;101313.38;2614681;31;20420;-57
2022/08/18 03:56:59;;;;;;;;;;;;;;;19.99;100.00;101306.19;2614069;36;20681;-56
2022/08/18 03:59:30;;;;;;;;;;;;;;;20.09;100.00;101306.75;2614532;31;19958;-56
2022/08/18 04:01:58;;;;;;;;;;;;;;;19.98;100.00;101310.81;2614085;36;20359;-54
2022/08/18 04:04:28;;;;;;;;;;;;;;;20.07;100.00;101311.56;2614542;36;19975;-57
2022/08/18 04:06:57;;;;;;;;;;;;;;;20.10;100.00;101312.03;2613321;36;19946;-55
2022/08/18 04:09:26;;;;;;;;;;;;;;;20.19;100.00;101307.31;2614298;36;19946;-54
2022/08/18 04:11:54;;;;;;;;;;;;;;;20.17;100.00;101303.94;2612870;36;19950;-56
2022/08/18 04:14:23;;;;;;;;;;;;;;;20.12;100.00;101300.91;2614465;36;19947;-56
2022/08/18 04:16:54;;;;;;;;;;;;;;;20.08;100.00;101305.03;2612851;36;19957;-57
2022/08/18 04:19:22;;;;;;;;;;;;;;;20.08;100.00;101311.38;2614384;36;19958;-53
2022/08/18 04:21:53;;;;;;;;;;;;;;;20.12;100.00;101306.38;2613601;31;20467;-54
2022/08/18 04:24:21;;;;;;;;;;;;;;;20.09;100.00;101312.22;2614424;36;20510;-55
2022/08/18 04:26:50;;;;;;;;;;;;;;;20.08;100.00;101302.31;2614290;36;19966;-56
2022/08/18 04:29:20;;;;;;;;;;;;;;;19.97;100.00;101298.19;2614342;31;19946;-54
2022/08/18 04:31:48;;;;;;;;;;;;;;;19.95;100.00;101312.03;2613266;36;19953;-55
2022/08/18 04:34:19;;;;;;;;;;;;;;;20.01;100.00;101310.44;2612869;31;20038;-55
2022/08/18 04:36:48;;;;;;;;;;;;;;;19.94;100.00;101301.28;2613123;36;20014;-54
2022/08/18 04:39:16;;;;;;;;;;;;;;;20.03;100.00;101296.59;2614481;36;20404;-56
2022/08/18 04:41:47;;;;;;;;;;;;;;;20.08;100.00;101302.31;2615521;36;20422;-55
2022/08/18 04:44:16;;;;;;;;;;;;;;;20.00;100.00;101292.34;2614516;36;19985;-55
2022/08/18 04:46:47;;;;;;;;;;;;;;;19.87;100.00;101292.97;2613574;36;20358;-53
2022/08/18 04:49:16;;;;;;;;;;;;;;;19.93;100.00;101292.25;2614062;36;19951;-57
2022/08/18 04:53:43;;;;;;;;;;;;;;;19.91;100.00;101302.50;2614888;36;20337;-56
2022/08/18 04:54:37;;;;;;;;;;;;;;;19.98;100.00;101305.34;2613588;31;19951;-55
2022/08/18 04:57:08;;;;;;;;;;;;;;;19.95;100.00;101303.81;2615096;36;19977;-57
2022/08/18 04:59:36;;;;;;;;;;;;;;;19.95;100.00;101303.81;2613897;36;19951;-56
2022/08/18 05:02:07;;;;;;;;;;;;;;;19.98;100.00;101305.34;2613391;36;19965;-56
2022/08/18 05:04:36;;;;;;;;;;;;;;;19.90;100.00;101306.25;2613203;36;19985;-55
2022/08/18 05:07:07;;;;;;;;;;;;;;;19.87;100.00;101303.06;2613263;36;21804;-55
2022/08/18 05:09:35;;;;;;;;;;;;;;;20.08;100.00;101303.19;2613148;36;19969;-55
2022/08/18 05:12:04;;;;;;;;;;;;;;;19.99;100.00;101306.19;2614330;31;19947;-55
2022/08/18 05:14:32;;;;;;;;;;;;;;;20.01;100.00;101304.09;2613251;36;19995;-55
2022/08/18 05:17:00;;;;;;;;;;;;;;;20.06;100.00;101313.44;2611712;36;19956;-54
2022/08/18 05:19:29;;;;;;;;;;;;;;;20.18;100.00;101313.81;2613876;36;19990;-55
2022/08/18 05:21:58;;;;;;;;;;;;;;;20.34;100.00;101309.19;2612112;36;19957;-52
2022/08/18 05:24:29;;;;;;;;;;;;;;;20.35;100.00;101319.09;2614132;36;19982;-56
2022/08/18 05:26:57;;;;;;;;;;;;;;;20.43;100.00;101317.09;2613427;36;19954;-56
2022/08/18 05:29:25;;;;;;;;;;;;;;;20.50;100.00;101317.19;2613658;36;19953;-55
2022/08/18 05:31:55;;;;;;;;;;;;;;;20.49;100.00;101310.03;2612584;36;19958;-55
2022/08/18 05:34:27;;;;;;;;;;;;;;;20.51;100.00;101321.63;2614815;36;19947;-56
2022/08/18 05:37:00;;;;;;;;;;;;;;;20.50;100.00;101322.66;2614280;31;19950;-54
2022/08/18 05:39:34;;;;;;;;;;;;;;;20.42;100.00;101323.63;2612721;36;23033;-54
2022/08/18 05:42:04;;;;;;;;;;;;;;;20.44;100.00;101315.22;2614194;36;19946;-56
2022/08/18 05:44:34;;;;;;;;;;;;;;;20.49;100.00;101318.22;2615154;36;19946;-55
2022/08/18 05:47:06;;;;;;;;;;;;;;;20.54;100.00;101317.66;2614259;36;19950;-54
2022/08/18 05:49:35;;;;;;;;;;;;;;;20.52;100.00;101312.38;2614354;36;19947;-56
2022/08/18 05:52:05;;;;;;;;;;;;;;;20.44;100.00;101309.75;2612625;36;19977;-52
2022/08/18 05:57:22;;;;;;;;;;;;;;;20.34;100.00;101301.00;2614510;36;19958;-56
2022/08/18 05:59:53;;;;;;;;;;;;;;;20.34;100.00;101301.00;2614683;36;19981;-56
2022/08/18 06:02:30;;;;;;;;;;;;;;;20.42;100.00;101300.88;2614144;31;19985;-56
2022/08/18 06:05:00;;;;;;;;;;;;;;;20.40;100.00;101295.59;2613444;36;19954;-55
2022/08/18 06:07:35;;;;;;;;;;;;;;;20.50;100.00;101303.53;2614670;36;19951;-53
2022/08/18 06:10:07;;;;;;;;;;;;;;;20.43;100.00;101311.63;2613988;36;19959;-54
2022/08/18 06:12:36;;;;;;;;;;;;;;;20.45;100.00;101311.44;2613867;36;19942;-57
2022/08/18 06:15:06;;;;;;;;;;;;;;;20.52;100.00;101317.00;2614912;36;19951;-57
2022/08/18 06:17:44;;;;;;;;;;;;;;;20.52;100.00;101315.09;2614199;36;20412;-56
2022/08/18 06:20:16;;;;;;;;;;;;;;;20.61;100.00;101311.25;2613819;36;19954;-54
2022/08/18 06:22:49;;;;;;;;;;;;;;;20.79;100.00;101313.59;2614512;36;19977;-55
2022/08/18 06:25:21;;;;;;;;;;;;;;;21.06;100.00;101313.88;2612823;36;20416;-55
2022/08/18 06:27:57;;;;;;;;;;;;;;;21.11;100.00;101316.03;2615079;36;19977;-52
2022/08/18 06:30:31;;;;;;;;;;;;;;;21.10;100.00;101308.88;2614956;36;20343;-56
2022/08/18 06:33:10;;;;;;;;;;;;;;;21.18;100.00;101303.25;2614111;36;20432;-54
2022/08/18 06:35:43;;;;;;;;;;;;;;;21.23;100.00;101306.28;2613715;36;19954;-54
2022/08/18 06:41:09;;;;;;;;;;;;;;;21.15;100.00;101301.75;2606609;36;19985;-55
2022/08/18 06:43:38;;;;;;;;;;;;;;;21.33;100.00;101309.53;2613816;36;19985;-54
2022/08/18 06:46:11;;;;;;;;;;;;;;;21.37;100.00;101311.88;2613754;36;19954;-54
2022/08/18 06:48:41;;;;;;;;;;;;;;;21.55;100.00;101304.03;2612054;36;19966;-56
2022/08/18 06:51:10;;;;;;;;;;;;;;;21.50;100.00;101303.75;2614523;36;19951;-57
2022/08/18 06:53:53;;;;;;;;;;;;;;;21.75;100.00;101306.09;2613710;31;19951;-56
2022/08/18 06:56:27;;;;;;;;;;;;;;;21.81;100.00;101311.63;2613326;36;19939;-56
2022/08/18 06:58:55;;;;;;;;;;;;;;;21.80;100.00;101317.28;2615032;36;20863;-59
2022/08/18 07:01:24;;;;;;;;;;;;;;;22.10;100.00;101325.28;2615788;31;20350;-54
2022/08/18 07:03:57;;;;;;;;;;;;;;;21.93;100.00;101319.28;2614601;36;20316;-56
2022/08/18 07:06:27;;;;;;;;;;;;;;;22.21;100.00;101322.00;2612603;36;20526;-57
2022/08/18 07:08:55;;;;;;;;;;;;;;;22.60;100.00;101326.03;2614368;36;20413;-57
2022/08/18 07:11:28;;;;;;;;;;;;;;;22.69;100.00;101318.47;2614677;36;19957;-55
2022/08/18 07:13:58;;;;;;;;;;;;;;;22.97;100.00;101318.34;2614814;36;20325;-57
2022/08/18 07:16:26;;;;;;;;;;;;;;;23.11;100.00;101311.00;2614265;36;19954;-58
2022/08/18 07:18:55;;;;;;;;;;;;;;;23.04;100.00;101313.72;2614197;36;19957;-56
2022/08/18 07:21:27;;;;;;;;;;;;;;;22.73;100.00;101320.59;2615090;31;19946;-58
2022/08/18 07:24:02;;;;;;;;;;;;;;;22.62;100.00;101334.06;2613007;36;19946;-57
2022/08/18 07:26:53;;;;;;;;;;;;;;;22.78;100.00;101335.59;2615092;36;20468;-55
2022/08/18 07:29:21;;;;;;;;;;;;;;;22.86;100.00;101335.41;2614246;36;20473;-57
2022/08/18 07:31:51;;;;;;;;;;;;;;;23.09;100.00;101338.63;2614425;36;19958;-56
2022/08/18 07:34:24;;;;;;;;;;;;;;;23.18;100.00;101344.81;2614822;36;19990;-57
2022/08/18 07:36:55;;;;;;;;;;;;;;;23.42;100.00;101342.53;2612568;36;20424;-55
2022/08/18 07:39:27;;;;;;;;;;;;;;;23.42;100.00;101353.50;2613992;31;20071;-56
2022/08/18 07:42:04;;;;;;;;;;;;;;;23.63;100.00;101344.25;2613849;36;19977;-57
2022/08/18 07:44:36;;;;;;;;;;;;;;;23.62;100.00;101350.78;2613532;36;20018;-54
2022/08/18 07:47:06;;;;;;;;;;;;;;;23.45;100.00;101350.34;2613935;36;20038;-57
2022/08/18 07:49:35;;;;;;;;;;;;;;;23.77;100.00;101345.06;2614700;31;19950;-57
2022/08/18 07:52:05;;;;;;;;;;;;;;;23.87;100.00;101342.78;2612741;31;19954;-56
2022/08/18 07:54:46;;;;;;;;;;;;;;;24.14;100.00;101339.97;2614309;36;19947;-56
2022/08/18 07:57:20;;;;;;;;;;;;;;;23.98;100.00;101337.69;2614279;36;20105;-58
2022/08/18 07:59:53;;;;;;;;;;;;;;;23.87;100.00;101337.28;2614209;36;19950;-58
2022/08/18 08:02:27;;;;;;;;;;;;;;;23.99;100.00;101344.88;2614650;31;19949;-56
2022/08/18 08:05:02;;;;;;;;;;;;;;;23.78;100.00;101353.09;2614679;36;20676;-57
2022/08/18 08:07:31;;;;;;;;;;;;;;;23.71;100.00;101351.41;2614340;36;19954;-57
2022/08/18 08:10:20;;;;;;;;;;;;;;;24.01;100.00;101353.75;2614620;36;19950;-57
2022/08/18 08:12:55;;;;;;;;;;;;;;;24.10;100.00;101353.31;2615448;36;19962;-58
2022/08/18 08:15:29;;;;;;;;;;;;;;;24.30;100.00;101360.69;2612156;54;20621;-58
2022/08/18 08:18:00;;;;;;;;;;;;;;;23.81;100.00;101351.84;2610727;36;19950;-58
2022/08/18 08:20:31;;;;;;;;;;;;;;;23.94;100.00;101349.09;2610369;31;19985;-58
2022/08/18 08:23:06;;;;;;;;;;;;;;;24.13;100.00;101350.16;2611558;36;20504;-57
2022/08/18 08:25:39;;;;;;;;;;;;;;;24.07;100.00;101347.38;2611111;36;19935;-59
2022/08/18 08:28:15;;;;;;;;;;;;;;;24.06;100.00;101346.56;2612895;36;19970;-58
2022/08/18 08:30:47;;;;;;;;;;;;;;;24.08;100.00;101352.69;2610554;36;19954;-59
2022/08/18 08:33:22;;;;;;;;;;;;;;;23.85;100.00;101355.00;2610319;36;19958;-58
2022/08/18 08:35:53;;;;;;;;;;;;;;;23.95;100.00;101345.31;2611877;36;20085;-58
2022/08/18 08:38:25;;;;;;;;;;;;;;;24.30;100.00;101353.25;2613203;36;20394;-58
2022/08/18 08:40:55;;;;;;;;;;;;;;;24.77;100.00;101342.13;2613669;36;20018;-59
2022/08/18 08:43:31;;;;;;;;;;;;;;;25.24;100.00;101341.88;2614388;36;19972;-58
2022/08/18 08:46:07;;;;;;;;;;;;;;;24.88;100.00;101337.00;2614536;36;19977;-58
2022/08/18 08:48:38;;;;;;;;;;;;;;;25.23;100.00;101344.84;2614950;36;20359;-61
2022/08/18 08:51:13;;;;;;;;;;;;;;;24.98;100.00;101335.47;2613797;36;19973;-58
2022/08/18 08:53:45;;;;;;;;;;;;;;;24.80;100.00;101325.16;2614172;36;20006;-58
2022/08/18 08:56:15;;;;;;;;;;;;;;;24.68;100.00;101337.09;2613764;36;19954;-58
2022/08/18 08:58:50;;;;;;;;;;;;;;;24.42;100.00;101336.94;2614687;36;19951;-57
2022/08/18 09:01:23;;;;;;;;;;;;;;;24.59;100.00;101339.25;2614585;36;19951;-59
2022/08/18 09:03:58;;;;;;;;;;;;;;;24.55;100.00;101338.78;2613949;36;19963;-59
2022/08/18 09:06:29;;;;;;;;;;;;;;;24.06;100.00;101341.06;2613809;36;19962;-59
2022/08/18 09:09:07;;;;;;;;;;;;;;;23.91;100.00;101343.19;2612645;36;19970;-59
2022/08/18 09:12:00;;;;;;;;;;;;;;;24.26;100.00;101348.41;2613357;36;19957;-58
2022/08/18 09:14:52;;;;;;;;;;;;;;;24.13;100.00;101349.28;2613821;36;19962;-57
2022/08/18 09:17:35;;;;;;;;;;;;;;;24.21;100.00;101345.47;2614464;36;20090;-58
2022/08/18 09:20:12;;;;;;;;;;;;;;;24.16;100.00;101359.88;2614323;36;19958;-59
2022/08/18 09:22:47;;;;;;;;;;;;;;;24.33;100.00;101353.91;2614548;36;20323;-59
2022/08/18 09:25:30;;;;;;;;;;;;;;;24.04;100.00;101359.69;2613639;36;19950;-59
2022/08/18 09:28:10;;;;;;;;;;;;;;;23.97;100.00;101364.34;2614315;36;19954;-58
2022/08/18 09:30:43;;;;;;;;;;;;;;;23.92;100.00;101366.88;2614608;36;20038;-59
2022/08/18 09:33:23;;;;;;;;;;;;;;;24.14;100.00;101360.09;2611534;36;19973;-58
2022/08/18 09:36:11;;;;;;;;;;;;;;;24.09;100.00;101357.13;2613593;36;20034;-57
2022/08/18 09:41:35;;;;;;;;;;;;;;;24.15;100.00;101360.94;2614681;36;19953;-57
2022/08/18 09:44:13;;;;;;;;;;;;;;;23.91;100.00;101367.91;2615138;36;19946;-59
2022/08/18 09:46:54;;;;;;;;;;;;;;;23.83;100.00;101368.13;2614026;36;19951;-58
2022/08/18 09:49:52;;;;;;;;;;;;;;;24.17;100.00;101368.97;2615153;36;19954;-58
2022/08/18 09:52:35;;;;;;;;;;;;;;;24.34;100.00;101367.44;2613450;31;20443;-58
2022/08/18 09:55:07;;;;;;;;;;;;;;;24.34;100.00;101363.84;2613203;36;19963;-60
2022/08/18 09:57:36;;;;;;;;;;;;;;;24.26;100.00;101365.78;2614933;36;19954;-58
2022/08/18 10:00:21;;;;;;;;;;;;;;;24.58;100.00;101365.88;2614367;36;19954;-59
2022/08/18 10:03:11;;;;;;;;;;;;;;;24.75;100.00;101358.03;2613920;31;19951;-59
2022/08/18 10:05:42;;;;;;;;;;;;;;;24.40;100.00;101358.31;2615003;36;20005;-58
2022/08/18 10:08:25;;;;;;;;;;;;;;;24.62;100.00;101360.84;2614879;36;20517;-57
2022/08/18 10:10:57;;;;;;;;;;;;;;;24.70;100.00;101346.81;2614724;36;20314;-59
2022/08/18 10:13:29;;;;;;;;;;;;;;;24.40;100.00;101352.00;2615040;31;19962;-58
2022/08/18 10:16:08;;;;;;;;;;;;;;;24.64;100.00;101347.69;2614950;36;19954;-59
2022/08/18 10:18:44;;;;;;;;;;;;;;;24.25;100.00;101352.25;2614701;36;20448;-56
2022/08/18 10:21:20;;;;;;;;;;;;;;;24.10;100.00;101346.97;2614634;36;19951;-57
2022/08/18 10:23:52;;;;;;;;;;;;;;;24.20;100.00;101347.38;2614138;36;19973;-58
2022/08/18 10:26:36;;;;;;;;;;;;;;;23.82;100.00;101350.75;2614494;36;19969;-59
2022/08/18 10:29:05;;;;;;;;;;;;;;;23.86;100.00;101343.00;2614938;36;20424;-59
2022/08/18 10:31:34;;;;;;;;;;;;;;;24.16;100.00;101353.50;2614884;36;19958;-58
2022/08/18 10:34:04;;;;;;;;;;;;;;;24.87;100.00;101346.31;2614436;36;19950;-59
2022/08/18 10:36:41;;;;;;;;;;;;;;;25.37;100.00;101349.22;2614932;31;21066;-57
2022/08/18 10:39:12;;;;;;;;;;;;;;;25.66;100.00;101352.38;2613445;36;19955;-59
2022/08/18 10:41:50;;;;;;;;;;;;;;;25.08;100.00;101358.94;2614972;36;19955;-58
2022/08/18 10:44:21;;;;;;;;;;;;;;;25.43;100.00;101356.59;2614847;36;19962;-58
2022/08/18 10:46:50;;;;;;;;;;;;;;;26.12;100.00;101344.78;2614902;36;19954;-59
2022/08/18 10:49:24;;;;;;;;;;;;;;;26.43;100.00;101349.34;2613766;36;20515;-59
2022/08/18 10:52:11;;;;;;;;;;;;;;;26.82;100.00;101341.66;2613905;36;19951;-58
2022/08/18 10:54:46;;;;;;;;;;;;;;;27.34;100.00;101340.31;2613893;31;19947;-58
2022/08/18 10:57:17;;;;;;;;;;;;;;;27.54;100.00;101342.75;2615074;36;19973;-59
2022/08/18 10:59:50;;;;;;;;;;;;;;;27.04;100.00;101349.44;2614708;36;19966;-58
2022/08/18 11:02:36;;;;;;;;;;;;;;;27.09;100.00;101331.09;2613548;36;19951;-58
2022/08/18 11:05:07;;;;;;;;;;;;;;;27.30;100.00;101347.34;2615297;36;19946;-57
2022/08/18 11:07:42;;;;;;;;;;;;;;;27.09;100.00;101349.56;2614240;36;19957;-58
2022/08/18 11:10:17;;;;;;;;;;;;;;;27.97;100.00;101347.13;2614230;36;20050;-57
2022/08/18 11:13:01;;;;;;;;;;;;;;;28.50;100.00;101345.28;2613423;36;19979;-59
2022/08/18 11:15:34;;;;;;;;;;;;;;;28.06;100.00;101345.72;2613780;36;20378;-59
2022/08/18 11:18:08;;;;;;;;;;;;;;;27.39;100.00;101345.97;2614300;36;19954;-56
2022/08/18 11:20:38;;;;;;;;;;;;;;;27.04;100.00;101349.44;2613649;36;19958;-58
2022/08/18 11:23:13;;;;;;;;;;;;;;;26.55;100.00;101344.72;2613893;36;19951;-57
2022/08/18 11:25:41;;;;;;;;;;;;;;;26.77;100.00;101344.28;2614522;36;19953;-59
2022/08/18 11:28:16;;;;;;;;;;;;;;;27.26;100.00;101336.75;2614331;36;19954;-56
2022/08/18 11:30:45;;;;;;;;;;;;;;;26.40;100.00;101349.81;2614808;36;19954;-54
2022/08/18 11:33:16;;;;;;;;;;;;;;;26.54;100.00;101343.03;2614504;36;19985;-57
2022/08/18 11:35:49;;;;;;;;;;;;;;;26.26;100.00;101346.34;2614045;36;19954;-55
2022/08/18 11:38:20;;;;;;;;;;;;;;;26.39;100.00;101343.41;2613366;36;19950;-58
2022/08/18 11:40:51;;;;;;;;;;;;;;;26.40;100.00;101342.34;2614543;36;19973;-57
2022/08/18 11:43:20;;;;;;;;;;;;;;;26.46;100.00;101340.59;2613978;36;19954;-54
2022/08/18 11:45:51;;;;;;;;;;;;;;;26.73;100.00;101338.38;2614034;36;19977;-57
2022/08/18 11:48:21;;;;;;;;;;;;;;;26.79;100.00;101336.59;2614199;31;20038;-56
2022/08/18 11:50:52;;;;;;;;;;;;;;;26.21;100.00;101335.97;2614061;36;19974;-52
2022/08/18 11:53:27;;;;;;;;;;;;;;;26.72;100.00;101338.59;2613834;36;19982;-54
2022/08/18 11:56:08;;;;;;;;;;;;;;;26.82;100.00;101329.78;2614345;36;19951;-53
2022/08/18 11:58:40;;;;;;;;;;;;;;;26.65;100.00;101337.81;2614982;31;20381;-52
2022/08/18 12:01:11;;;;;;;;;;;;;;;26.36;100.00;101338.38;2614911;47;19955;-52
2022/08/18 12:03:42;;;;;;;;;;;;;;;26.07;100.00;101339.94;2613674;36;19950;-53
2022/08/18 12:06:28;;;;;;;;;;;;;;;26.08;100.00;101335.31;2614339;36;19994;-52
2022/08/18 12:09:02;;;;;;;;;;;;;;;25.92;100.00;101329.25;2613983;31;20349;-56
2022/08/18 12:11:32;;;;;;;;;;;;;;;26.05;100.00;101331.06;2615053;31;19950;-56
2022/08/18 12:14:03;;;;;;;;;;;;;;;27.03;100.00;101325.63;2614087;36;19985;-54
2022/08/18 12:16:36;;;;;;;;;;;;;;;27.00;100.00;101320.59;2614618;36;19958;-54
2022/08/18 12:19:04;;;;;;;;;;;;;;;27.56;100.00;101313.81;2614295;36;19954;-53
2022/08/18 12:21:33;;;;;;;;;;;;;;;27.53;100.00;101318.94;2614465;36;19969;-52
2022/08/18 12:24:04;;;;;;;;;;;;;;;27.26;100.00;101319.34;2614223;36;19951;-56
2022/08/18 12:26:32;;;;;;;;;;;;;;;26.90;100.00;101310.94;2614195;31;19978;-54
2022/08/18 12:29:00;;;;;;;;;;;;;;;26.75;100.00;101308.63;2614741;31;19951;-54
2022/08/18 12:31:28;;;;;;;;;;;;;;;26.98;100.00;101307.00;2613426;36;19945;-56
2022/08/18 12:33:56;;;;;;;;;;;;;;;27.64;100.00;101297.94;2613697;36;19955;-54
2022/08/18 12:36:25;;;;;;;;;;;;;;;27.28;100.00;101304.22;2614110;36;19981;-50
2022/08/18 12:38:53;;;;;;;;;;;;;;;26.80;100.00;101310.66;2613638;36;20448;-55
2022/08/18 12:41:24;;;;;;;;;;;;;;;26.51;100.00;101326.94;2614352;36;20030;-53
2022/08/18 12:43:52;;;;;;;;;;;;;;;26.23;100.00;101320.03;2614503;36;19947;-53
2022/08/18 12:46:20;;;;;;;;;;;;;;;26.02;100.00;101323.25;2614423;36;19954;-55
2022/08/18 12:48:49;;;;;;;;;;;;;;;25.97;100.00;101321.16;2614144;36;20717;-56
2022/08/18 12:51:17;;;;;;;;;;;;;;;26.05;100.00;101309.84;2613247;36;19950;-54
2022/08/18 12:53:45;;;;;;;;;;;;;;;25.89;100.00;101316.75;2612785;31;19974;-54
2022/08/18 12:56:18;;;;;;;;;;;;;;;26.05;100.00;101314.53;2613970;36;20372;-54
2022/08/18 12:58:49;;;;;;;;;;;;;;;26.98;100.00;101303.41;2614593;36;19957;-55
2022/08/18 13:01:17;;;;;;;;;;;;;;;26.63;100.00;101309.59;2614861;36;19954;-54
2022/08/18 13:03:46;;;;;;;;;;;;;;;27.05;100.00;101306.94;2614109;36;19951;-53
2022/08/18 13:06:14;;;;;;;;;;;;;;;26.82;100.00;101304.91;2613922;36;19958;-52
2022/08/18 13:08:42;;;;;;;;;;;;;;;27.15;100.00;101309.09;2614176;36;19951;-54